Tiempo atmosférico en la estación meteorológica de Campos, Can Sion, Illes Balears (40 m.)



Fecha
DESCASC
Temp. máxima en grados centígrados (hora)
DESCASC
Temp. mínima en grados centígrados (hora)
DESCASC
Temp. media en grados centígrados
DESCASC
Racha de viento máxima en m/sg (hora)
DESCASC
Velocidad máxima media en intervalos de 10 minutos(hora)
DESCASC
Precipitaciones diarias en mm
DESCASC
Precipitaciones de 00:00 a 06:00 en mm
DESCASC
Precipitaciones de 06:00 a 12:00 en mm
DESCASC
Precipitaciones de 12:00 a 18:00 en mm
DESCASC
Precipitaciones de 18:00 a 24:00 en mm
DESCASC
09-12-2018 20 (14:10) 3.9 (02:20) 12 8.89 (14:30) 5.28 (12:40) 0.2 0.2 0 0 0
08-12-2018 16.3 (15:30) 4.3 (23:59) 10.3 3.89 (11:30) 1.94 (14:40) 0 0 0 0 0
07-12-2018 18.9 (12:50) 4.9 (05:00) 11.9 8.06 (13:10) 5 (12:40) 0 0 0 0 0
06-12-2018 21.2 (14:30) 5.3 (00:00) 13.3 7.5 (13:00) 3.33 (13:00) 0.2 0.2 0 0 0
05-12-2018 19 (15:30) 6.8 (00:00) 12.9 3.89 (14:20) 2.22 (15:10) 0 0 0 0 0
04-12-2018 21.9 (14:00) 5.6 (00:00) 13.7 4.17 (14:50) 2.5 (14:50) 0 0 0 0 0
03-12-2018 20.9 (14:20) 6.7 (00:00) 13.8 4.17 (14:30) 2.22 (14:30) 0.2 0 0.2 0 0
02-12-2018 18.5 (12:30) 5.6 (00:00) 12 4.72 (14:10) 2.78 (14:00) 0 0 0 0 0
01-12-2018 17.2 (13:10) 3.8 (00:00) 10.5 5.83 (15:50) 3.06 (15:50) 0 0 0 0 0
30-11-2018 18.2 (15:10) 5.6 (00:00) 11.9 8.06 (19:10) 3.89 (16:40) 0.2 0 0 0 0.2
29-11-2018 18.8 (13:50) 3.3 (00:00) 11 6.11 (13:10) 3.33 (14:10) 0 0 0 0 0
28-11-2018 19.6 (14:30) 3 (00:00) 11.3 5.83 (13:50) 3.33 (13:10) 0 0 0 0 0
27-11-2018 17.3 (15:20) 3.7 (00:00) 10.5 9.17 (14:20) 5 (13:30) 0 0 0 0 0
26-11-2018 17.2 (11:40) 7.7 (19:50) 12.5 18.06 (12:10) 9.72 (12:20) 4.6 3.8 0.2 0.4 0.2
25-11-2018 18.3 (14:40) 4 (00:00) 11.1 13.89 (11:50) 8.33 (13:40) 0.2 0 0 0 0.2
24-11-2018 18.7 (13:30) 6.2 (00:00) 12.5 3.89 (11:40) 1.67 (11:40) 0 0 0 0 0
23-11-2018 19.5 (14:50) 11.2 (00:00) 15.3 5.56 (15:20) 3.61 (15:10) 0 0 0 0 0
22-11-2018 19.1 (15:30) 11.1 (00:00) 15.1 3.89 (12:30) 2.22 (12:10) 3.8 0.2 3.6 0 0
21-11-2018 18.9 (12:40) 9.9 (00:00) 14.4 11.11 (15:00) 6.11 (13:30) 0 0 0 0 0
20-11-2018 17.6 (15:10) 5.3 (00:00) 11.5 15 (19:00) 6.67 (19:10) 11 0 1.4 1 8.6
19-11-2018 16.2 (00:00) 9 (00:00) 12.6 10 (13:10) 4.44 (01:00) 42.4 2.2 7.2 33 0
18-11-2018 18.2 (13:40) 6 (00:00) 12.1 10 (16:30) 5.28 (20:30) 0 0 0 0 0
17-11-2018 20.5 (13:20) 8 (00:00) 14.3 7.5 (14:20) 3.89 (14:30) 1 0 0 0.8 0.2
16-11-2018 21 (12:40) 11.2 (00:00) 16.1 8.33 (12:50) 5 (12:10) 0 0 0 0 0
15-11-2018 21.6 (14:30) 14.9 (00:00) 18.3 8.89 (12:00) 5.83 (12:30) 0.6 0.6 0 0 0
14-11-2018 21.9 (12:20) 10.9 (00:00) 16.4 5.83 (13:10) 3.61 (13:10) 0 0 0 0 0

Gráficas

Temp. máximas Temp. mínimas Temp. medias Precipitaciones Rachas de viento máximas Velocidades máximas media en intervalos de 10 minutos

Datos horarios

Fecha y hora oficial Temperatura (ºC) Velocidad del viento (km/h) Dirección del viento Racha (km/h) Dirección de racha Precipitación (mm) Presión (hPa) Tendencia (hPa) Humedad (%)
2018-12-13 23:00:00 11.3 6 Oeste 10 Sudoeste 1 -- -- 98
2018-12-13 22:00:00 11.4 4 Sudoeste 12 Sur 1 -- -- 98
2018-12-13 21:00:00 11.4 4 Sudoeste 9 Oeste 1.6 -- -- 98
2018-12-13 20:00:00 11.7 5 Sudoeste 10 Sudoeste 3.8 -- -- 97
2018-12-13 19:00:00 11.1 0 Calma 4 Oeste 0.2 -- -- 95
2018-12-13 18:00:00 12 5 Oeste 19 Sudoeste 0 -- -- 93
2018-12-13 17:00:00 12.4 15 Oeste 35 Sudoeste 0.2 -- -- 92
2018-12-13 16:00:00 14.5 19 Sudoeste 34 Sudoeste 0 -- -- 83
2018-12-13 15:00:00 13.9 12 Sudoeste 23 Sudoeste 0 -- -- 86
2018-12-13 14:00:00 13.6 14 Oeste 36 Oeste 0.6 -- -- 89
2018-12-13 13:00:00 15.8 19 Oeste 38 Sudoeste 0 -- -- 70
2018-12-13 12:00:00 15.8 18 Oeste 40 Oeste 0 -- -- 74
2018-12-13 11:00:00 15 17 Oeste 40 Sudoeste 0 -- -- 76
2018-12-13 10:00:00 15.1 23 Sudoeste 40 Sudoeste 0 -- -- 75
2018-12-13 09:00:00 14.4 15 Sudoeste 28 Sudoeste 0 -- -- 79
2018-12-13 08:00:00 13.5 9 Sudoeste 20 Sudoeste 0 -- -- 90
2018-12-13 07:00:00 12 8 Sudoeste 17 Sudoeste 0 -- -- 100
2018-12-13 06:00:00 10 4 Sur 6 Sudoeste 0 -- -- 100
2018-12-13 05:00:00 10.1 5 Sudoeste 9 Sudoeste 0 -- -- 100
2018-12-13 04:00:00 8.7 0 Calma 4 Este 0 -- -- 98
2018-12-13 03:00:00 8.7 2 Este 6 Este 0 -- -- 98
2018-12-13 02:00:00 8.7 3 Este 7 Este 0 -- -- 98
2018-12-13 01:00:00 8.4 4 Este 5 Este 0 -- -- 97
2018-12-13 00:00:00 8.5 3 Este 4 Este 0 -- -- 96
2018-12-12 23:00:00 8.7 3 Este 4 Sudeste 0 -- -- 96
2018-12-12 22:00:00 9 2 Sudeste 8 Sur 0 -- -- 96
2018-12-12 21:00:00 8.6 0 Calma 3 Este 0 -- -- 95
2018-12-12 20:00:00 8.6 0 Calma 6 Sur 0 -- -- 93
2018-12-12 19:00:00 9.1 2 Sudeste 5 Sur 0 -- -- 89
2018-12-12 18:00:00 12 3 Sur 8 Sur 0 -- -- 80
2018-12-12 17:00:00 16.4 5 Sudoeste 12 Sudoeste 0 -- -- 69
2018-12-12 16:00:00 18 6 Sudoeste 15 Sudoeste 0 -- -- 67
2018-12-12 15:00:00 18.8 8 Oeste 15 Oeste 0 -- -- 65
2018-12-12 14:00:00 18.9 6 Sudoeste 14 Sudoeste 0 -- -- 55
2018-12-12 13:00:00 18.6 6 Oeste 14 Oeste 0 -- -- 66
2018-12-12 12:00:00 17.5 4 Oeste 10 Sudoeste 0 -- -- 78
2018-12-12 11:00:00 15.6 2 Sudoeste 5 Este 0 -- -- 96
2018-12-12 10:00:00 11.6 3 Este 4 Norte 0 -- -- 100
2018-12-12 09:00:00 8.4 2 Nordeste 6 Este 0 -- -- 100
2018-12-12 08:00:00 8 4 Este 7 Este 0 -- -- 100
2018-12-12 07:00:00 8 2 Nordeste 5 Nordeste 0 -- -- 100
2018-12-12 06:00:00 7.7 2 Este 6 Este 0 -- -- 100
2018-12-12 05:00:00 8.8 4 Este 7 Este 0 -- -- 100
2018-12-12 04:00:00 7.5 3 Este 6 Este 0 -- -- 100
2018-12-12 03:00:00 7.4 4 Este 6 Este 0 -- -- 100
2018-12-12 02:00:00 6.2 4 Este 5 Este 0 -- -- 99
2018-12-12 01:00:00 6.7 3 Este 5 Este 0 -- -- 99
2018-12-12 00:00:00 7.1 4 Este 5 Este 0 -- -- 98
2018-12-11 23:00:00 7.4 4 Este 5 Este 0 -- -- 98
2018-12-11 22:00:00 7.3 4 Este 5 Este 0 -- -- 98
2018-12-11 21:00:00 8 3 Este 6 Este 0 -- -- 97
2018-12-11 20:00:00 8.2 3 Este 5 Este 0 -- -- 95
2018-12-11 19:00:00 9.1 2 Sudeste 3 Este 0 -- -- 92
2018-12-11 18:00:00 11.6 2 Sur 5 Sudoeste 0 -- -- 88
2018-12-11 17:00:00 14.8 4 Sudoeste 15 Sudoeste 0 -- -- 83
2018-12-11 16:00:00 16.8 10 Sudoeste 21 Sudoeste 0 -- -- 76
2018-12-11 15:00:00 17.3 14 Oeste 21 Sudoeste 0 -- -- 73
2018-12-11 14:00:00 16.7 10 Oeste 21 Oeste 0 -- -- 78
2018-12-11 13:00:00 17.3 8 Oeste 17 Oeste 0 -- -- 74
2018-12-11 12:00:00 16.1 5 Oeste 14 Oeste 0 -- -- 80
2018-12-11 11:00:00 14.6 2 Noroeste 6 Oeste 0 -- -- 93
2018-12-11 10:00:00 10.6 0 Calma 3 Norte 0 -- -- 100
2018-12-11 09:00:00 6.6 0 Calma 4 Este 0 -- -- 100
2018-12-11 08:00:00 5.1 0 Calma 6 Este 0 -- -- 99
2018-12-11 07:00:00 5.5 3 Este 5 Este 0 -- -- 99
2018-12-11 06:00:00 5.6 2 Este 4 Este 0 -- -- 98
2018-12-11 05:00:00 6.7 2 Este -- -- 0 -- -- 99
2018-12-11 04:00:00 7 2 Este 4 Nordeste 0 -- -- 98
2018-12-11 03:00:00 7.8 3 Nordeste 6 Este 0 -- -- 97
2018-12-11 02:00:00 8.4 4 Este 5 Este 0 -- -- 98
2018-12-11 01:00:00 8.5 3 Este 5 Este 0 -- -- 96
2018-12-11 00:00:00 10.5 3 Este 5 Este 0 -- -- 96
2018-12-10 23:00:00 10.5 0 Calma 5 Este 0 -- -- 95
2018-12-10 22:00:00 11.6 0 Calma 5 Nordeste 0 -- -- 94
2018-12-10 21:00:00 12.4 3 Nordeste 5 Nordeste 0 -- -- 94
2018-12-10 20:00:00 13.3 2 Este 7 Norte 0 -- -- 92
2018-12-10 19:00:00 13.6 2 Nordeste 7 Norte 0 -- -- 90
2018-12-10 18:00:00 14 5 Este 11 Este 0 -- -- 87
2018-12-10 17:00:00 14.7 6 Este 13 Este 0 -- -- 85
2018-12-10 16:00:00 15.4 7 Este 13 Sudeste 0 -- -- 83
2018-12-10 15:00:00 15.8 8 Este 15 Este 0 -- -- 81
2018-12-10 14:00:00 17.3 5 Sur 10 Sur 0 -- -- 71
2018-12-10 13:00:00 18.3 5 Sur 10 Sudoeste 0 -- -- 69
2018-12-10 12:00:00 16.7 0 Calma 6 Nordeste 0 -- -- 80
2018-12-10 11:00:00 14.5 4 Norte 6 Norte 0 -- -- 93
2018-12-10 10:00:00 12.5 2 Nordeste 5 Este 0 -- -- 100
2018-12-10 09:00:00 9 3 Este 5 Este 0 -- -- 100
2018-12-10 08:00:00 7.6 3 Este 5 Este 0 -- -- 100
2018-12-10 07:00:00 7.6 4 Este 6 Este 0 -- -- 100
2018-12-10 06:00:00 6.5 3 Este 5 Este 0 -- -- 100
2018-12-10 05:00:00 5.9 2 Este 4 Nordeste 0 -- -- 100
2018-12-10 04:00:00 5.6 0 Calma 6 Este 0 -- -- 97
2018-12-10 03:00:00 5.7 0 Calma 5 Este 0 -- -- 96
2018-12-10 02:00:00 5.7 0 Calma 5 Este 0 -- -- 95
2018-12-10 01:00:00 6.2 0 Calma 5 Noroeste 0 -- -- 92
2018-12-10 00:00:00 7.6 3 Norte 8 Este 0 -- -- 89
2018-12-09 23:00:00 8.9 4 Este 10 Este 0 -- -- 83
2018-12-09 22:00:00 11.4 6 Este 13 Sudoeste 0 -- -- 72
2018-12-09 21:00:00 13.3 4 Oeste 21 Noroeste 0 -- -- 67
2018-12-09 20:00:00 13.5 5 Norte 23 Oeste 0 -- -- 71
2018-12-09 19:00:00 14 12 Oeste 20 Oeste 0 -- -- 78
2018-12-09 18:00:00 14.9 10 Sudoeste 23 Oeste 0 -- -- 83
2018-12-09 17:00:00 17.3 14 Oeste 24 Oeste 0 -- -- 69
2018-12-09 16:00:00 19 14 Oeste 28 Sudoeste 0 -- -- 67
2018-12-09 15:00:00 19.5 16 Oeste 32 Oeste 0 -- -- 64
2018-12-09 14:00:00 19.9 15 Oeste 29 Oeste 0 -- -- 66
2018-12-09 13:00:00 19.2 17 Oeste 31 Sudoeste 0 -- -- 70
2018-12-09 12:00:00 18.4 15 Oeste 27 Sudoeste 0 -- -- 78
2018-12-09 11:00:00 17.6 9 Oeste 14 Noroeste 0 -- -- 83
2018-12-09 10:00:00 15.4 6 Sudoeste 13 Sudoeste 0 -- -- 100
2018-12-09 09:00:00 11.8 5 Oeste 9 Sudoeste 0 -- -- 100
2018-12-09 08:00:00 9.5 3 Oeste 12 Sudoeste 0 -- -- 99
2018-12-09 07:00:00 11.5 8 Oeste 16 Sudoeste 0 -- -- 100
2018-12-09 06:00:00 9.6 5 Sudoeste 10 Sudoeste 0.2 -- -- 100
2018-12-09 05:00:00 8.6 6 Sudoeste 14 Oeste 0 -- -- 100
2018-12-09 04:00:00 4.4 3 Sudoeste 7 Sudoeste 0 -- -- 100
2018-12-09 03:00:00 4.3 3 Sudeste 6 Este 0 -- -- 100
2018-12-09 02:00:00 4 3 Este 5 Sudeste 0 -- -- 99
2018-12-09 01:00:00 4.4 2 Sudeste 6 Este 0 -- -- 99
2018-12-09 00:00:00 4.3 3 Sudeste 5 Este 0 -- -- 98
2018-12-08 23:00:00 4.6 2 Este 4 Este 0 -- -- 97
2018-12-08 22:00:00 4.8 0 Calma 4 Este 0 -- -- 96
2018-12-08 21:00:00 5.8 2 Este 3 Este 0 -- -- 95
2018-12-08 20:00:00 7.4 0 Calma 5 Este 0 -- -- 94
2018-12-08 19:00:00 9.3 0 Calma 5 Noroeste 0 -- -- 91
2018-12-08 18:00:00 12.4 3 Sudoeste 6 Sudoeste 0 -- -- 86
2018-12-08 17:00:00 15.3 3 Sur 9 Sur 0 -- -- 78
2018-12-08 16:00:00 16.2 3 Sudeste 10 Este 0 -- -- 75
2018-12-08 15:00:00 16.1 6 Este 12 Este 0 -- -- 77
2018-12-08 14:00:00 15.3 4 Norte 11 Norte 0 -- -- 83
2018-12-08 13:00:00 13.5 4 Norte 10 Norte 0 -- -- 95
2018-12-08 12:00:00 13.2 4 Nordeste 14 Norte 0 -- -- 99
2018-12-08 11:00:00 12.2 3 Nordeste 12 Norte 0 -- -- 100
2018-12-08 10:00:00 10.9 4 Nordeste 7 Nordeste 0 -- -- 100
2018-12-08 09:00:00 8.4 0 Calma 10 Este 0 -- -- 100
2018-12-08 08:00:00 7.6 4 Este 12 Este 0 -- -- 100
2018-12-08 07:00:00 7.6 3 Este 7 Este 0 -- -- 99
2018-12-08 06:00:00 7.5 3 Este 7 Este 0 -- -- 100
2018-12-08 05:00:00 7.6 4 Este 6 Este 0 -- -- 100
2018-12-08 04:00:00 8.1 4 Este 6 Este 0 -- -- 99
2018-12-08 03:00:00 8.8 4 Este 7 Este 0 -- -- 98
2018-12-08 02:00:00 8.3 2 Este 5 Oeste 0 -- -- 98
2018-12-08 01:00:00 8.7 3 Sudoeste 5 Sudoeste 0 -- -- 97
2018-12-08 00:00:00 9.9 0 Calma 7 Sudoeste 0 -- -- 96
2018-12-07 23:00:00 10.2 2 Sudeste 7 Sudoeste 0 -- -- 93
2018-12-07 22:00:00 12.7 5 Sudoeste 13 Sudoeste 0 -- -- 93
2018-12-07 21:00:00 13.4 7 Sudoeste 18 Sudoeste 0 -- -- 92
2018-12-07 20:00:00 14.1 10 Sudoeste 19 Sudoeste 0 -- -- 90
2018-12-07 19:00:00 14.8 5 Sudoeste 16 Sudoeste 0 -- -- 92
2018-12-07 18:00:00 14.7 6 Oeste 15 Sudoeste 0 -- -- 91
2018-12-07 17:00:00 16.2 6 Sudoeste 20 Sudoeste 0 -- -- 86
2018-12-07 16:00:00 17 11 Sudoeste 24 Sudoeste 0 -- -- 82
2018-12-07 15:00:00 17.2 13 Oeste 26 Oeste 0 -- -- 81
2018-12-07 14:00:00 17.2 13 Sudoeste 29 Sudoeste 0 -- -- 81
2018-12-07 13:00:00 18.9 14 Sudoeste 28 Oeste 0 -- -- 76
2018-12-07 12:00:00 16.7 12 Oeste 21 Sudoeste 0 -- -- 87
2018-12-07 11:00:00 15.9 6 Sudoeste 14 Sudoeste 0 -- -- 100
2018-12-07 10:00:00 13.5 0 Calma 6 Sudeste 0 -- -- 100
2018-12-07 09:00:00 9.8 3 Este 5 Este 0 -- -- 100
2018-12-07 08:00:00 7 3 Este 5 Este 0 -- -- 100
2018-12-07 07:00:00 6.4 4 Este 5 Este 0 -- -- 100
2018-12-07 06:00:00 5.4 3 Este 4 Este 0 -- -- 99
2018-12-07 05:00:00 4.9 0 Calma 4 Este 0 -- -- 99
2018-12-07 04:00:00 5.6 0 Calma 5 Nordeste 0 -- -- 99
2018-12-07 03:00:00 6.5 4 Este 7 Este 0 -- -- 98
2018-12-07 02:00:00 6.6 4 Este 6 Este 0 -- -- 98
2018-12-07 01:00:00 6.8 2 Este 6 Este 0 -- -- 98
2018-12-07 00:00:00 7.3 3 Nordeste 6 Este 0 -- -- 97
2018-12-06 23:00:00 7.9 2 Nordeste 5 Norte 0 -- -- 96
2018-12-06 22:00:00 8.7 4 Este 6 Este 0 -- -- 96
2018-12-06 21:00:00 9.2 4 Este 6 Sudeste 0 -- -- 95
2018-12-06 20:00:00 10.1 4 Este 6 Este 0 -- -- 92
2018-12-06 19:00:00 12.2 3 Sudeste 5 Este 0 -- -- 87
2018-12-06 18:00:00 14.2 3 Este 8 Sudeste 0 -- -- 82
2018-12-06 17:00:00 18.4 4 Sudeste 10 Este 0 -- -- 67
2018-12-06 16:00:00 20.9 0 Calma 11 Norte 0 -- -- 59
2018-12-06 15:00:00 20.7 6 Norte 18 Este 0 -- -- 61
2018-12-06 14:00:00 20.9 9 Nordeste 22 Nordeste 0 -- -- 60
2018-12-06 13:00:00 20.6 12 Nordeste 27 Este 0 -- -- 61
2018-12-06 12:00:00 19.4 6 Nordeste 13 Nordeste 0 -- -- 75
2018-12-06 11:00:00 17 4 Nordeste 10 Este 0 -- -- 95
2018-12-06 10:00:00 14.2 4 Nordeste 11 Nordeste 0 -- -- 100
2018-12-06 09:00:00 9.6 3 Nordeste 6 Nordeste 0 -- -- 100
2018-12-06 08:00:00 5.4 3 Este 4 Este 0 -- -- 100
2018-12-06 07:00:00 6.4 0 Calma 8 Norte 0 -- -- 99
2018-12-06 06:00:00 7 3 Nordeste 6 Este 0 -- -- 99
2018-12-06 05:00:00 7.3 4 Sudeste 6 Sudeste 0.2 -- -- 100
2018-12-06 04:00:00 6.8 0 Calma 6 Norte 0 -- -- 99
2018-12-06 03:00:00 7.5 4 Este 6 Este 0 -- -- 100
2018-12-06 02:00:00 7.4 4 Este 7 Este 0 -- -- 100
2018-12-06 01:00:00 6.5 3 Este 5 Este 0 -- -- 99
2018-12-06 00:00:00 7.4 3 Este 5 Sudeste 0 -- -- 99
2018-12-05 23:00:00 7.4 4 Este 4 Sudeste 0 -- -- 99
2018-12-05 22:00:00 7.7 3 Este 4 Este 0 -- -- 98
2018-12-05 21:00:00 7.7 0 Calma 4 Este 0 -- -- 96
2018-12-05 20:00:00 8.8 3 Este 4 Este 0 -- -- 94
2018-12-05 19:00:00 10.2 0 Calma 4 Sur 0 -- -- 91
2018-12-05 18:00:00 13.4 0 Calma 5 Sur 0 -- -- 84
2018-12-05 17:00:00 17.5 3 Sur 10 Sudoeste 0 -- -- 79
2018-12-05 16:00:00 19 5 Sudoeste 13 Sudoeste 0 -- -- 74
2018-12-05 15:00:00 18.8 6 Sudoeste 14 Sudoeste 0 -- -- 74
2018-12-05 14:00:00 18 7 Sudoeste 13 Sudoeste 0 -- -- 85
2018-12-05 13:00:00 16.3 6 Sudoeste 10 Sudoeste 0 -- -- 99
2018-12-05 12:00:00 15.4 4 Oeste 6 Oeste 0 -- -- 100
2018-12-05 11:00:00 14.3 0 Calma 4 Este 0 -- -- 100
2018-12-05 10:00:00 12.8 3 Este 5 Este 0 -- -- 100
2018-12-05 09:00:00 10.6 4 Este 6 Este 0 -- -- 100
2018-12-05 08:00:00 9.9 0 Calma 5 Este 0 -- -- 100
2018-12-05 07:00:00 10.5 4 Este 6 Este 0 -- -- 100
2018-12-05 06:00:00 9.8 2 Nordeste 6 Este 0 -- -- 100
2018-12-05 05:00:00 8.5 4 Este 6 Este 0 -- -- 100
2018-12-05 04:00:00 6.8 0 Calma 4 Nordeste 0 -- -- 99
2018-12-05 03:00:00 8 2 Este 6 Este 0 -- -- 99
2018-12-05 02:00:00 7.1 3 Este 4 Este 0 -- -- 99
2018-12-05 01:00:00 7.7 3 Este 5 Este 0 -- -- 98
2018-12-05 00:00:00 8.2 3 Este 5 Este 0 -- -- 98
2018-12-04 23:00:00 8.1 2 Nordeste 4 Nordeste 0 -- -- 97
2018-12-04 22:00:00 9.1 3 Este 5 Nordeste 0 -- -- 97
2018-12-04 21:00:00 9.5 2 Nordeste 6 Este 0 -- -- 95
2018-12-04 20:00:00 10.6 3 Este 5 Este 0 -- -- 94
2018-12-04 19:00:00 11.9 3 Nordeste 3 Nordeste 0 -- -- 90
2018-12-04 18:00:00 14.8 0 Calma 5 Sur 0 -- -- 85
2018-12-04 17:00:00 18.5 4 Sudeste 13 Sudeste 0 -- -- 81
2018-12-04 16:00:00 20.1 6 Sudeste 15 Sudeste 0 -- -- 77
2018-12-04 15:00:00 20.6 6 Sudeste 15 Este 0 -- -- 75
2018-12-04 14:00:00 21.9 4 Sur 11 Este 0 -- -- 66
2018-12-04 13:00:00 20.6 3 Sur 11 Sudeste 0 -- -- 68
2018-12-04 12:00:00 19.5 6 Sudeste 15 Sudeste 0 -- -- 74
2018-12-04 11:00:00 17.9 7 Este 15 Este 0 -- -- 84
2018-12-04 10:00:00 13.8 0 Calma 4 Nordeste 0 -- -- 97
2018-12-04 09:00:00 9.3 2 Nordeste 5 Nordeste 0 -- -- 100
2018-12-04 08:00:00 5.7 0 Calma 4 Norte 0 -- -- 99
2018-12-04 07:00:00 6.5 4 Este 6 Este 0 -- -- 100
2018-12-04 06:00:00 7.3 0 Calma 7 Este 0 -- -- 99
2018-12-04 05:00:00 7.3 4 Sudeste 7 Este 0 -- -- 99
2018-12-04 04:00:00 7.7 3 Este 7 Este 0 -- -- 99
2018-12-04 03:00:00 7.4 3 Este 6 Este 0 -- -- 99
2018-12-04 02:00:00 7.3 3 Este 6 Este 0 -- -- 99
2018-12-04 01:00:00 7.1 3 Este 5 Este 0 -- -- 98
2018-12-04 00:00:00 7.6 0 Calma 5 Oeste 0 -- -- 98
2018-12-03 23:00:00 8.9 0 Calma 9 Este 0 -- -- 97
2018-12-03 22:00:00 8.7 3 Sudeste 5 Este 0 -- -- 96
2018-12-03 21:00:00 9.6 0 Calma 8 Este 0 -- -- 95
2018-12-03 20:00:00 10.8 4 Este 6 Este 0 -- -- 95
2018-12-03 19:00:00 11.7 3 Este 5 Este 0 -- -- 91
2018-12-03 18:00:00 14.2 0 Calma 5 Sur 0 -- -- 86
2018-12-03 17:00:00 17.5 4 Sur 9 Sur 0 -- -- 80
2018-12-03 16:00:00 18.9 4 Sur 11 Sudoeste 0 -- -- 73
2018-12-03 15:00:00 20.1 6 Sudoeste 15 Sudoeste 0 -- -- 73
2018-12-03 14:00:00 20.4 4 Oeste 7 Oeste 0 -- -- 73
2018-12-03 13:00:00 19.2 4 Oeste 10 Oeste 0 -- -- 73
2018-12-03 12:00:00 17.1 6 Oeste 10 Sudoeste 0.2 -- -- 97
2018-12-03 11:00:00 14.9 0 Calma 4 Noroeste 0 -- -- 100
2018-12-03 10:00:00 13.6 0 Calma 3 Norte 0 -- -- 100
2018-12-03 09:00:00 10.8 0 Calma 3 Nordeste 0 -- -- 100
2018-12-03 08:00:00 9.1 0 Calma 6 Este 0 -- -- 100
2018-12-03 07:00:00 8.3 3 Este 8 Este 0 -- -- 100
2018-12-03 06:00:00 8.1 4 Este 8 Este 0 -- -- 100
2018-12-03 05:00:00 7.6 4 Este 5 Este 0 -- -- 100
2018-12-03 04:00:00 7 3 Este 5 Este 0 -- -- 99
2018-12-03 03:00:00 7 3 Este 4 Este 0 -- -- 99
2018-12-03 02:00:00 6.7 3 Oeste 5 Sudoeste 0 -- -- 98
2018-12-03 01:00:00 7.8 3 Sudeste 5 Este 0 -- -- 98
2018-12-03 00:00:00 7.4 3 Este 4 Este 0 -- -- 98
2018-12-02 23:00:00 7.5 0 Calma 4 Sudeste 0 -- -- 97
2018-12-02 22:00:00 7.8 0 Calma 3 Sudeste 0 -- -- 96
2018-12-02 21:00:00 8.3 0 Calma 3 Este 0 -- -- 94
2018-12-02 20:00:00 9.4 0 Calma 3 Sur 0 -- -- 92
2018-12-02 19:00:00 11.4 2 Sudoeste 7 Sur 0 -- -- 90
2018-12-02 18:00:00 13.4 5 Sur 7 Sur 0 -- -- 85
2018-12-02 17:00:00 15.9 5 Sudoeste 12 Sudoeste 0 -- -- 76
2018-12-02 16:00:00 17.2 8 Sudoeste 17 Sudoeste 0 -- -- 71
2018-12-02 15:00:00 18.2 9 Sudoeste 17 Oeste 0 -- -- 64
2018-12-02 14:00:00 18.2 10 Sudoeste 16 Oeste 0 -- -- 67
2018-12-02 13:00:00 18.4 9 Sudoeste 16 Oeste 0 -- -- 65
2018-12-02 12:00:00 17.9 4 Oeste 8 Oeste 0 -- -- 69
2018-12-02 11:00:00 16.2 3 Oeste 9 Noroeste 0 -- -- 82
2018-12-02 10:00:00 13.7 3 Este 7 Este 0 -- -- 97
2018-12-02 09:00:00 7.9 3 Este 4 Este 0 -- -- 100
2018-12-02 08:00:00 5.7 -- -- -- -- 0 -- -- 98
2018-12-02 07:00:00 6.1 5 Este 7 Este 0 -- -- 99
2018-12-02 06:00:00 5.9 2 Este 4 Este 0 -- -- 98
2018-12-02 05:00:00 6.5 0 Calma 4 Este 0 -- -- 98
2018-12-02 04:00:00 6.5 4 Este 5 Este 0 -- -- 98
2018-12-02 03:00:00 7.2 2 Nordeste 7 Este 0 -- -- 96
2018-12-02 02:00:00 8 5 Este 7 Este 0 -- -- 97
2018-12-02 01:00:00 8.6 4 Este 6 Este 0 -- -- 96
2018-12-02 00:00:00 9.2 4 Este 6 Este 0 -- -- 94
2018-12-01 23:00:00 10.1 0 Calma 2 Noroeste 0 -- -- 93
2018-12-01 22:00:00 11 0 Calma 6 Sur 0 -- -- 93
2018-12-01 21:00:00 10.9 0 Calma 3 Sur 0 -- -- 93
2018-12-01 20:00:00 10.9 0 Calma 3 Sur 0 -- -- 92
2018-12-01 19:00:00 11.2 2 Sur 4 Este 0 -- -- 90
2018-12-01 18:00:00 12 2 Este 4 Oeste 0 -- -- 84
2018-12-01 17:00:00 14.1 3 Oeste 18 Oeste 0 -- -- 73
2018-12-01 16:00:00 15.6 10 Oeste 21 Oeste 0 -- -- 63
2018-12-01 15:00:00 16.3 8 Oeste 20 Oeste 0 -- -- 60
2018-12-01 14:00:00 16.8 8 Oeste 18 Oeste 0 -- -- 58
2018-12-01 13:00:00 16.9 6 Oeste 13 Oeste 0 -- -- 60
2018-12-01 12:00:00 16.6 5 Oeste 10 Sudoeste 0 -- -- 69
2018-12-01 11:00:00 14.9 4 Oeste 6 Oeste 0 -- -- 83
2018-12-01 10:00:00 11.7 3 Este 6 Este 0 -- -- 100
2018-12-01 09:00:00 6.8 0 Calma 6 Oeste 0 -- -- 100
2018-12-01 08:00:00 3.9 3 Este 5 Este 0 -- -- 100
2018-12-01 07:00:00 4.3 4 Este 8 Este 0 -- -- 99
2018-12-01 06:00:00 4.8 4 Este 8 Este 0 -- -- 99
2018-12-01 05:00:00 4.9 3 Este 7 Este 0 -- -- 100
2018-12-01 04:00:00 4.8 4 Este 6 Oeste 0 -- -- 99
2018-12-01 03:00:00 4.4 2 Sudeste 5 Oeste 0 -- -- 99
2018-12-01 02:00:00 4.5 0 Calma 4 Este 0 -- -- 98
2018-12-01 01:00:00 5.5 3 Sudeste 4 Este 0 -- -- 97
2018-12-01 00:00:00 5.6 0 Calma 4 Este 0 -- -- 96
2018-11-30 23:00:00 6.8 2 Sudeste 4 Este 0 -- -- 96
2018-11-30 22:00:00 7.6 3 Sudeste 4 Este 0 -- -- 94
2018-11-30 21:00:00 8.8 2 Sudeste 4 Sudeste 0 -- -- 91
2018-11-30 20:00:00 11.4 2 Norte 29 Norte 0.2 -- -- 91
2018-11-30 19:00:00 12.6 12 Norte 28 Nordeste 0 -- -- 86
2018-11-30 18:00:00 12.9 3 Norte 14 Oeste 0 -- -- 80
2018-11-30 17:00:00 14.7 9 Noroeste 27 Oeste 0 -- -- 69
2018-11-30 16:00:00 17.5 12 Noroeste 24 Noroeste 0 -- -- 61
2018-11-30 15:00:00 17.9 7 Noroeste 19 Noroeste 0 -- -- 62
2018-11-30 14:00:00 16.6 11 Noroeste 24 Oeste 0 -- -- 69
2018-11-30 13:00:00 15.6 9 Oeste 17 Oeste 0 -- -- 81
2018-11-30 12:00:00 16.6 4 Oeste 11 Oeste 0 -- -- 83
2018-11-30 11:00:00 15.8 4 Oeste 13 Oeste 0 -- -- 92
2018-11-30 10:00:00 12.8 0 Calma 4 Sudoeste 0 -- -- 100
2018-11-30 09:00:00 10.5 0 Calma 7 Este 0 -- -- 97
2018-11-30 08:00:00 10.1 0 Calma 6 Oeste 0 -- -- 97
2018-11-30 07:00:00 11.3 4 Sudoeste 10 Sudoeste 0 -- -- 97
2018-11-30 06:00:00 12.2 5 Sur 9 Sudoeste 0 -- -- 99
2018-11-30 05:00:00 11.6 0 Calma 13 Sur 0 -- -- 99
2018-11-30 04:00:00 11.6 6 Sur 10 Sudoeste 0 -- -- 100
2018-11-30 03:00:00 9.3 5 Sur 8 Sur 0 -- -- 100
2018-11-30 02:00:00 8.8 0 Calma 3 Sudoeste 0 -- -- 99
2018-11-30 01:00:00 8.3 0 Calma 5 Sur 0 -- -- 98
2018-11-30 00:00:00 8.9 0 Calma 5 Sur 0 -- -- 97
2018-11-29 23:00:00 10.7 2 Sudoeste 9 Sudoeste 0 -- -- 98
2018-11-29 22:00:00 11.2 5 Sudeste 9 Sur 0 -- -- 98
2018-11-29 21:00:00 10.3 6 Sur 8 Sur 0 -- -- 98
2018-11-29 20:00:00 10.3 2 Sudeste 6 Sur 0 -- -- 94
2018-11-29 19:00:00 11.6 3 Sur 7 Sur 0 -- -- 91
2018-11-29 18:00:00 13.5 3 Sur 8 Sur 0 -- -- 88
2018-11-29 17:00:00 15.2 4 Sudoeste 15 Sudoeste 0 -- -- 83
2018-11-29 16:00:00 17.4 7 Sudoeste 21 Oeste 0 -- -- 76
2018-11-29 15:00:00 18.4 9 Sudoeste 21 Sudoeste 0 -- -- 71
2018-11-29 14:00:00 18.3 10 Sudoeste 22 Sudoeste 0 -- -- 73
2018-11-29 13:00:00 17.4 10 Sudoeste 19 Sudoeste 0 -- -- 77
2018-11-29 12:00:00 18.3 8 Sudoeste 15 Sudoeste 0 -- -- 75
2018-11-29 11:00:00 15.8 2 Noroeste 4 Noroeste 0 -- -- 92
2018-11-29 10:00:00 11.9 0 Calma 3 Norte 0 -- -- 100
2018-11-29 09:00:00 8.1 3 Nordeste 6 Nordeste 0 -- -- 100
2018-11-29 08:00:00 3.3 3 Nordeste 5 Nordeste 0 -- -- 100
2018-11-29 07:00:00 3.6 3 Nordeste 5 Este 0 -- -- 99
2018-11-29 06:00:00 3.6 3 Nordeste 4 Nordeste 0 -- -- 99
2018-11-29 05:00:00 3.9 3 Este 5 Nordeste 0 -- -- 99
2018-11-29 04:00:00 4.2 2 Nordeste 5 Nordeste 0 -- -- 98
2018-11-29 03:00:00 4.2 3 Nordeste 5 Nordeste 0 -- -- 98
2018-11-29 02:00:00 4.5 0 Calma 4 Nordeste 0 -- -- 97
2018-11-29 01:00:00 5.4 2 Nordeste 4 Este 0 -- -- 97
2018-11-29 00:00:00 6.9 2 Nordeste 6 Este 0 -- -- 98
2018-11-28 23:00:00 7.3 2 Este 6 Este 0 -- -- 97
2018-11-28 22:00:00 7.9 3 Este 6 Nordeste 0 -- -- 96
2018-11-28 21:00:00 8.9 4 Este 6 Este 0 -- -- 96
2018-11-28 14:00:00 -- -- -- -- -- -- -- -- --
2018-11-28 13:00:00 18.9 12 Sudoeste 18 Oeste 0 -- -- 64
2018-11-28 12:00:00 18 6 Oeste 9 Sudoeste 0 -- -- 69
2018-11-28 11:00:00 15.9 3 Oeste 5 Sudoeste 0 -- -- 72
2018-11-28 10:00:00 11.8 2 Este 4 Nordeste 0 -- -- 92
2018-11-28 09:00:00 7.2 0 Calma 6 Este 0 -- -- 100
2018-11-28 08:00:00 3.4 4 Este 8 Este 0 -- -- 98
2018-11-28 07:00:00 3.7 4 Este 8 Este 0 -- -- 98
2018-11-28 06:00:00 3.1 0 Calma 5 Norte 0 -- -- 97
2018-11-28 05:00:00 4.6 0 Calma 7 Este 0 -- -- 97
2018-11-28 04:00:00 4.2 0 Calma 6 Este 0 -- -- 97
2018-11-28 03:00:00 5.2 3 Este 6 Este 0 -- -- 96
2018-11-28 02:00:00 5.9 4 Este 5 Este 0 -- -- 96
2018-11-28 01:00:00 6.9 3 Este 6 Este 0 -- -- 94
2018-11-28 00:00:00 7.7 3 Este 6 Este 0 -- -- 91
2018-11-27 23:00:00 9.4 5 Oeste 16 Oeste 0 -- -- 93
2018-11-27 22:00:00 10.7 3 Sur 22 Sudoeste 0 -- -- 80
2018-11-27 21:00:00 13.4 12 Oeste 28 Oeste 0 -- -- 69
2018-11-27 20:00:00 12.5 11 Oeste 24 Oeste 0 -- -- 73
2018-11-27 19:00:00 13 15 Oeste 27 Noroeste 0 -- -- 71
2018-11-27 18:00:00 12.9 8 Oeste 16 Oeste 0 -- -- 72
2018-11-27 17:00:00 14.6 8 Oeste 33 Oeste 0 -- -- 66
2018-11-27 16:00:00 16.4 15 Oeste 30 Oeste 0 -- -- 60
2018-11-27 15:00:00 17.1 13 Noroeste 33 Noroeste 0 -- -- 58
2018-11-27 14:00:00 16.9 14 Noroeste 32 Noroeste 0 -- -- 58
2018-11-27 13:00:00 16.7 14 Oeste 31 Noroeste 0 -- -- 57
2018-11-27 12:00:00 16.2 14 Oeste 28 Oeste 0 -- -- 62
2018-11-27 11:00:00 15.7 10 Oeste 18 Sudoeste 0 -- -- 62
2018-11-27 10:00:00 13.4 3 Sudoeste 5 Sudoeste 0 -- -- 78
2018-11-27 09:00:00 8.3 4 Este 5 Este 0 -- -- 100
2018-11-27 08:00:00 4.6 3 Sudeste 9 Este 0 -- -- 99
2018-11-27 07:00:00 4.3 0 Calma 8 Sudoeste 0 -- -- 98
2018-11-27 06:00:00 3.8 2 Oeste 5 Sudoeste 0 -- -- 96
2018-11-27 05:00:00 4.9 0 Calma 6 Sur 0 -- -- 95
2018-11-27 04:00:00 5.7 4 Este 8 Nordeste 0 -- -- 94
2018-11-27 03:00:00 7.2 4 Este 10 Sudoeste 0 -- -- 91
2018-11-27 02:00:00 9.6 6 Oeste 9 Oeste 0 -- -- 86
2018-11-27 01:00:00 11.6 5 Oeste 31 Noroeste 0 -- -- 78
2018-11-27 00:00:00 12.1 8 Noroeste 36 Noroeste 0 -- -- 75
2018-11-26 23:00:00 12.1 11 Oeste 30 Noroeste 0 -- -- 75
2018-11-26 22:00:00 8.3 6 Oeste 14 Oeste 0 -- -- 92
2018-11-26 21:00:00 10.4 5 Oeste 35 Noroeste 0 -- -- 84
2018-11-26 20:00:00 9.1 12 Oeste 23 Oeste 0 -- -- 98
2018-11-26 19:00:00 9.1 3 Sur 9 Oeste 0.2 -- -- 94
2018-11-26 18:00:00 10.5 2 Noroeste 6 Oeste 0 -- -- 93
2018-11-26 17:00:00 11.4 3 Noroeste 20 Nordeste 0.4 -- -- 91
2018-11-26 16:00:00 13.2 9 Noroeste 37 Noroeste 0 -- -- 76
2018-11-26 15:00:00 13.6 19 Noroeste 40 Oeste 0 -- -- 73
2018-11-26 14:00:00 14.8 15 Noroeste 44 Noroeste 0 -- -- 71
2018-11-26 13:00:00 14.7 19 Noroeste 65 Oeste 0 -- -- 73
2018-11-26 12:00:00 16.1 32 Noroeste 55 Noroeste 0 -- -- 74
2018-11-26 11:00:00 16.9 23 Oeste 50 Oeste 0 -- -- 70
2018-11-26 10:00:00 16.9 21 Oeste 41 Oeste 0 -- -- 80
2018-11-26 09:00:00 14.9 8 Sudoeste 17 Sudoeste 0.2 -- -- 100
2018-11-26 08:00:00 13.4 3 Sudeste 9 Sudoeste 0 -- -- 100
2018-11-26 07:00:00 13 2 Sur 4 Este 0 -- -- 99
2018-11-26 06:00:00 12.9 3 Sudeste 4 Sur 0.2 -- -- 99
2018-11-26 05:00:00 13.2 2 Nordeste 17 Sudoeste 2 -- -- 99
2018-11-26 04:00:00 12.8 3 Este 9 Este 1.4 -- -- 99
2018-11-26 03:00:00 12.6 0 Calma 5 Sudeste 0.2 -- -- 99
2018-11-26 02:00:00 12.7 3 Este 5 Este 0 -- -- 98
2018-11-26 01:00:00 12.8 2 Este 5 Este 0 -- -- 98
2018-11-26 00:00:00 12.5 3 Este 5 Este 0 -- -- 97
2018-11-25 23:00:00 12.6 0 Calma 3 Este 0 -- -- 95
2018-11-25 22:00:00 13.8 0 Calma 6 Oeste 0 -- -- 93
2018-11-25 21:00:00 15.1 4 Oeste 26 Oeste 0.2 -- -- 90
2018-11-25 20:00:00 16.2 12 Sudoeste 24 Oeste 0 -- -- 89
2018-11-25 19:00:00 15.9 9 Oeste 26 Sudoeste 0 -- -- 86
2018-11-25 18:00:00 15.8 10 Oeste 28 Sudoeste 0 -- -- 86
2018-11-25 17:00:00 17.1 14 Sudoeste 32 Sudoeste 0 -- -- 80
2018-11-25 16:00:00 17.9 20 Sudoeste 39 Sudoeste 0 -- -- 75
2018-11-25 15:00:00 17.9 21 Sudoeste 48 Sudoeste 0 -- -- 76
2018-11-25 14:00:00 18.1 27 Sudoeste 50 Sudoeste 0 -- -- 73
2018-11-25 13:00:00 17.9 24 Sudoeste 46 Sudoeste 0 -- -- 69
2018-11-25 12:00:00 17.6 24 Sudoeste 50 Sudoeste 0 -- -- 70
2018-11-25 11:00:00 16.9 18 Sudoeste 43 Oeste 0 -- -- 67
2018-11-25 10:00:00 15.5 18 Oeste 36 Oeste 0 -- -- 70
2018-11-25 09:00:00 11.4 14 Oeste 24 Sudoeste 0 -- -- 100
2018-11-25 08:00:00 5.5 2 Sudoeste 8 Sudoeste 0 -- -- 100
2018-11-25 07:00:00 4.1 4 Sur 8 Sudoeste 0 -- -- 100
2018-11-25 06:00:00 4.3 0 Calma 4 Este 0 -- -- 99
2018-11-25 05:00:00 4.9 3 Este 5 Este 0 -- -- 100
2018-11-25 04:00:00 5.3 4 Este 5 Este 0 -- -- 99
2018-11-25 03:00:00 6.2 4 Este 6 Este 0 -- -- 99
2018-11-25 02:00:00 5.6 4 Este 7 Este 0 -- -- 99
2018-11-25 01:00:00 5.6 3 Este 4 Este 0 -- -- 98
2018-11-25 00:00:00 6.2 3 Este 5 Este 0 -- -- 97
2018-11-24 23:00:00 6.8 0 Calma 4 Este 0 -- -- 96
2018-11-24 22:00:00 7.9 0 Calma 3 Este 0 -- -- 96
2018-11-24 21:00:00 9.2 2 Norte 5 Este 0 -- -- 95
2018-11-24 20:00:00 10.3 3 Este 4 Este 0 -- -- 94
2018-11-24 19:00:00 12 0 Calma 2 Sudoeste 0 -- -- 92
2018-11-24 18:00:00 13.3 0 Calma 3 Sudeste 0 -- -- 88
2018-11-24 17:00:00 15.4 2 Sudoeste 8 Sudeste 0 -- -- 82
2018-11-24 16:00:00 16.7 4 Sudeste 8 Sudeste 0 -- -- 69
2018-11-24 15:00:00 17.4 0 Calma 4 Oeste 0 -- -- 62
2018-11-24 14:00:00 17.6 3 Oeste 9 Este 0 -- -- 62
2018-11-24 13:00:00 18.4 5 Este 11 Este 0 -- -- 59
2018-11-24 12:00:00 17.2 5 Norte 14 Norte 0 -- -- 65
2018-11-24 11:00:00 14.7 3 Nordeste 9 Nordeste 0 -- -- 86
2018-11-24 10:00:00 11.8 0 Calma 2 Norte 0 -- -- 100
2018-11-24 09:00:00 10.5 0 Calma 4 Nordeste 0 -- -- 100
2018-11-24 08:00:00 8.5 2 Este 4 Este 0 -- -- 99
2018-11-24 07:00:00 9.5 3 Nordeste 6 Este 0 -- -- 99
2018-11-24 06:00:00 10.1 4 Este 8 Este 0 -- -- 99
2018-11-24 05:00:00 10.7 2 Nordeste 4 Nordeste 0 -- -- 98
2018-11-24 04:00:00 11.3 2 Noroeste 5 Nordeste 0 -- -- 98
2018-11-24 03:00:00 11.4 4 Este 6 Este 0 -- -- 98
2018-11-24 02:00:00 11.5 0 Calma 5 Sudoeste 0 -- -- 98
2018-11-24 01:00:00 11.7 2 Sudoeste 6 Sudoeste 0 -- -- 97
2018-11-24 00:00:00 11.6 4 Sudoeste 6 Sudoeste 0 -- -- 96
2018-11-23 23:00:00 12.7 2 Sudoeste 7 Sudoeste 0 -- -- 94
2018-11-23 22:00:00 14.3 3 Oeste 12 Oeste 0 -- -- 94
2018-11-23 21:00:00 14.7 6 Oeste 14 Oeste 0 -- -- 97
2018-11-23 20:00:00 14.6 2 Sudoeste 6 Oeste 0 -- -- 96
2018-11-23 19:00:00 15 3 Sudoeste 6 Sur 0 -- -- 95
2018-11-23 18:00:00 15.9 3 Oeste 14 Sudoeste 0 -- -- 93
2018-11-23 17:00:00 17.9 5 Sudoeste 12 Sudoeste 0 -- -- 87
2018-11-23 16:00:00 18.9 7 Sudoeste 20 Oeste 0 -- -- 86
2018-11-23 15:00:00 19.4 11 Sudoeste 19 Sudoeste 0 -- -- 80
2018-11-23 14:00:00 18.6 8 Sudoeste 19 Sudoeste 0 -- -- 84
2018-11-23 13:00:00 18.8 8 Sudoeste 18 Sudoeste 0 -- -- 89
2018-11-23 12:00:00 17.7 6 Sudoeste 13 Sudoeste 0 -- -- 98
2018-11-23 11:00:00 17.1 0 Calma 10 Sur 0 -- -- 100
2018-11-23 10:00:00 15 2 Sudeste 8 Este 0 -- -- 100
2018-11-23 09:00:00 13.5 4 Este 8 Este 0 -- -- 100
2018-11-23 08:00:00 12 2 Nordeste 8 Norte 0 -- -- 100
2018-11-23 07:00:00 11.6 3 Norte 8 Este 0 -- -- 100
2018-11-23 06:00:00 11.3 3 Norte 8 Norte 0 -- -- 100
2018-11-23 05:00:00 12.2 4 Este 10 Nordeste 0 -- -- 100
2018-11-23 04:00:00 12.5 4 Este 7 Este 0 -- -- 100
2018-11-23 03:00:00 12.3 2 Nordeste 6 Nordeste 0 -- -- 100
2018-11-23 02:00:00 11.6 0 Calma 4 Nordeste 0 -- -- 99
2018-11-23 01:00:00 12.3 0 Calma 5 Este 0 -- -- 99
2018-11-23 00:00:00 12.7 0 Calma 4 Este 0 -- -- 99
2018-11-22 23:00:00 13.1 0 Calma 6 Este 0 -- -- 98
2018-11-22 22:00:00 13.1 4 Este 8 Este 0 -- -- 98
2018-11-22 21:00:00 12.5 2 Norte 5 Este 0 -- -- 97
2018-11-22 20:00:00 13 4 Este 5 Este 0 -- -- 96
2018-11-22 19:00:00 14.2 3 Este 4 Este 0 -- -- 94
2018-11-22 18:00:00 15.7 0 Calma 3 Sur 0 -- -- 91
2018-11-22 17:00:00 17.4 2 Sudeste 6 Sudoeste 0 -- -- 88
2018-11-22 16:00:00 18.2 5 Sudoeste 12 Oeste 0 -- -- 80
2018-11-22 15:00:00 19 7 Sudoeste 12 Sudoeste 0 -- -- 76
2018-11-22 14:00:00 18.3 6 Sudoeste 13 Sudoeste 0 -- -- 86
2018-11-22 13:00:00 18.2 7 Sudoeste 14 Sur 0 -- -- 85
2018-11-22 12:00:00 17.4 6 Sur 11 Sudoeste 0 -- -- 98
2018-11-22 11:00:00 16.6 2 Sur 6 Sur 0 -- -- 100
2018-11-22 10:00:00 15.5 0 Calma 4 Sur 0 -- -- 100
2018-11-22 09:00:00 12.8 0 Calma 3 Norte 0 -- -- 100
2018-11-22 08:00:00 12.4 2 Nordeste 4 Noroeste 0 -- -- 100
2018-11-22 07:00:00 13.3 3 Este 9 Sudeste 3.6 -- -- 100
2018-11-22 06:00:00 11.3 4 Sudeste 8 Sudeste 0.2 -- -- 100
2018-11-22 05:00:00 11.2 3 Este 5 Norte 0 -- -- 99
2018-11-22 04:00:00 11.5 2 Nordeste 5 Noroeste 0 -- -- 100
2018-11-22 03:00:00 11.3 2 Este 5 Este 0 -- -- 99
2018-11-22 02:00:00 11.9 4 Este 5 Nordeste 0 -- -- 99
2018-11-22 01:00:00 12.2 4 Este 6 Este 0 -- -- 99
2018-11-22 00:00:00 12 4 Este 6 Este 0 -- -- 99
2018-11-21 23:00:00 11.8 4 Este 5 Este 0 -- -- 99
2018-11-21 22:00:00 10.2 5 Este 6 Este 0 -- -- 97
2018-11-21 21:00:00 10.3 0 Calma 4 Este 0 -- -- 96
2018-11-21 20:00:00 11.1 3 Este 5 Sur 0 -- -- 95
2018-11-21 19:00:00 11.6 3 Sur 5 Sudoeste 0 -- -- 92
2018-11-21 18:00:00 13.3 3 Este 8 Sudoeste 0 -- -- 85
2018-11-21 17:00:00 16.6 4 Sudoeste 15 Oeste 0 -- -- 73
2018-11-21 16:00:00 16.8 10 Oeste 33 Oeste 0 -- -- 68
2018-11-21 15:00:00 17.6 19 Oeste 40 Oeste 0 -- -- 60
2018-11-21 14:00:00 18.7 21 Oeste 37 Sudoeste 0 -- -- 61
2018-11-21 13:00:00 18.6 20 Sudoeste 33 Sudoeste 0 -- -- 62
2018-11-21 12:00:00 18 17 Oeste 35 Sudoeste 0 -- -- 63
2018-11-21 11:00:00 17.2 17 Oeste 30 Oeste 0 -- -- 64
2018-11-21 10:00:00 16.8 13 Oeste 29 Oeste 0 -- -- 68
2018-11-21 09:00:00 14.9 6 Oeste 21 Oeste 0 -- -- 75
2018-11-21 08:00:00 14.4 11 Oeste 28 Sudoeste 0 -- -- 75
2018-11-21 07:00:00 14 12 Sudoeste 22 Sudoeste 0 -- -- 79
2018-11-21 06:00:00 13.6 5 Oeste 19 Sudoeste 0 -- -- 81
2018-11-21 05:00:00 13.9 11 Oeste 23 Oeste 0 -- -- 81
2018-11-21 04:00:00 13.7 11 Sudoeste 29 Oeste 0 -- -- 82
2018-11-21 03:00:00 13.6 14 Oeste 27 Oeste 0 -- -- 86
2018-11-21 02:00:00 12.6 10 Oeste 20 Oeste 0 -- -- 95
2018-11-21 01:00:00 10.8 6 Sudoeste 13 Sudoeste 0 -- -- 99
2018-11-21 00:00:00 11.2 2 Este 7 Sudoeste 0 -- -- 96
2018-11-20 23:00:00 12.6 4 Sudoeste 26 Oeste 2.4 -- -- 96
2018-11-20 22:00:00 13.2 15 Oeste 50 Sudoeste 3.6 -- -- 92
2018-11-20 21:00:00 15.4 13 Sudoeste 28 Sudoeste 0 -- -- 92
2018-11-20 20:00:00 14.1 10 Sudoeste 54 Oeste 2.6 -- -- 95
2018-11-20 19:00:00 16.3 20 Sudoeste 54 Sudoeste 0 -- -- 86
2018-11-20 18:00:00 15.9 13 Sudoeste 31 Sudoeste 0 -- -- 86
2018-11-20 17:00:00 16.3 14 Sudoeste 29 Sudoeste 0 -- -- 86
2018-11-20 16:00:00 17.4 14 Sudoeste 35 Sudoeste 0 -- -- 87
2018-11-20 15:00:00 17.4 18 Sudoeste 39 Sudoeste 0 -- -- 94
2018-11-20 14:00:00 16.9 17 Sudoeste 45 Sudoeste 0 -- -- 100
2018-11-20 13:00:00 15.8 17 Sudoeste 31 Sudoeste 1 -- -- 100
2018-11-20 12:00:00 13.8 9 Sudoeste 22 Sudoeste 1 -- -- 100
2018-11-20 11:00:00 13.2 4 Sudoeste 17 Sudoeste 0.2 -- -- 100
2018-11-20 10:00:00 12.3 4 Sur 10 Sudoeste 0 -- -- 100
2018-11-20 09:00:00 9.6 0 Calma 4 Este 0 -- -- 100
2018-11-20 08:00:00 6.7 4 Este 8 Este 0 -- -- 100
2018-11-20 07:00:00 6.4 4 Este 7 Este 0.2 -- -- 100
2018-11-20 06:00:00 5.9 3 Este 7 Este 0 -- -- 100
2018-11-20 05:00:00 5.4 3 Este 5 Este 0 -- -- 100
2018-11-20 04:00:00 6.1 3 Este 5 Este 0 -- -- 100
2018-11-20 03:00:00 6.3 4 Este 6 Este 0 -- -- 100
2018-11-20 02:00:00 6.4 3 Este 4 Este 0 -- -- 100
2018-11-20 01:00:00 7.7 2 Sur 6 Este 0 -- -- 100
2018-11-20 00:00:00 9 3 Este 5 Norte 0 -- -- 100
2018-11-19 23:00:00 10.1 3 Nordeste 7 Norte 0 -- -- 100
2018-11-19 22:00:00 10.5 3 Nordeste 9 Nordeste 0 -- -- 100
2018-11-19 21:00:00 9 2 Este 4 Nordeste 0 -- -- 100
2018-11-19 20:00:00 9.7 2 Nordeste 5 Norte 0 -- -- 100
2018-11-19 19:00:00 11.4 0 Calma 10 Norte 0 -- -- 100
2018-11-19 18:00:00 12.4 3 Nordeste 13 Norte 0 -- -- 100
2018-11-19 17:00:00 13 5 Nordeste 18 Nordeste 0 -- -- 100
2018-11-19 16:00:00 12.9 4 Nordeste 19 Nordeste 0.6 -- -- 100
2018-11-19 15:00:00 12.6 7 Nordeste 34 Nordeste 3.8 -- -- 100
2018-11-19 14:00:00 12.8 12 Norte 36 Norte 17.4 -- -- 100
2018-11-19 13:00:00 13.2 11 Norte 26 Norte 11.2 -- -- 99
2018-11-19 12:00:00 14 10 Nordeste 28 Este 5.8 -- -- 98
2018-11-19 11:00:00 14 8 Nordeste 17 Nordeste 0 -- -- 97
2018-11-19 10:00:00 13.9 5 Nordeste 17 Norte 0.2 -- -- 98
2018-11-19 09:00:00 13.5 5 Norte 17 Nordeste 0.2 -- -- 98
2018-11-19 08:00:00 13.3 9 Nordeste 15 Norte 0 -- -- 98
2018-11-19 07:00:00 13.2 5 Nordeste 14 Nordeste 1 -- -- 98
2018-11-19 06:00:00 13.4 6 Nordeste 14 Norte 2 -- -- 97
2018-11-19 05:00:00 13.5 5 Nordeste 12 Norte 0 -- -- 96
2018-11-19 04:00:00 13.4 9 Nordeste 21 Norte 0 -- -- 94
2018-11-19 03:00:00 13.8 4 Norte 9 Este 0 -- -- 92
2018-11-19 02:00:00 14.6 5 Este 19 Este 0.2 -- -- 90
2018-11-19 01:00:00 15.7 16 Este 30 Este 0 -- -- 85
2018-11-19 00:00:00 16.2 13 Este 30 Este 0 -- -- 82
2018-11-18 23:00:00 16 13 Este 27 Este 0 -- -- 83
2018-11-18 22:00:00 15.8 13 Este 35 Este 0 -- -- 83
2018-11-18 21:00:00 15.6 15 Este 32 Este 0 -- -- 80
2018-11-18 20:00:00 15.6 17 Este 30 Este 0 -- -- 80
2018-11-18 19:00:00 15 11 Este 25 Este 0 -- -- 85
2018-11-18 18:00:00 15.3 9 Este 27 Este 0 -- -- 84
2018-11-18 17:00:00 16.1 14 Este 36 Este 0 -- -- 77
2018-11-18 16:00:00 16.7 15 Este 29 Este 0 -- -- 75
2018-11-18 15:00:00 17.7 17 Este 31 Este 0 -- -- 71
2018-11-18 14:00:00 17.3 15 Este 27 Este 0 -- -- 71
2018-11-18 13:00:00 17.3 14 Este 24 Este 0 -- -- 74
2018-11-18 12:00:00 16.2 8 Este 18 Este 0 -- -- 77
2018-11-18 11:00:00 15.2 6 Nordeste 14 Nordeste 0 -- -- 91
2018-11-18 10:00:00 12 3 Nordeste 9 Nordeste 0 -- -- 100
2018-11-18 09:00:00 9.9 2 Nordeste 12 Nordeste 0 -- -- 100
2018-11-18 08:00:00 7.5 3 Este 7 Nordeste 0 -- -- 100
2018-11-18 07:00:00 6.1 2 Nordeste 5 Este 0 -- -- 100
2018-11-18 06:00:00 6.7 0 Calma 7 Este 0 -- -- 99
2018-11-18 05:00:00 6.1 4 Este 7 Nordeste 0 -- -- 100
2018-11-18 04:00:00 6.7 3 Este 7 Este 0 -- -- 99
2018-11-18 03:00:00 6.8 4 Nordeste 6 Nordeste 0 -- -- 99
2018-11-18 02:00:00 7.8 3 Sudeste 8 Este 0 -- -- 99
2018-11-18 01:00:00 7.4 2 Sudeste 5 Este 0 -- -- 98
2018-11-18 00:00:00 8.6 0 Calma 7 Norte 0 -- -- 97
2018-11-17 23:00:00 9.5 4 Nordeste 9 Nordeste 0 -- -- 98
2018-11-17 22:00:00 9.2 2 Este 5 Nordeste 0 -- -- 96
2018-11-17 21:00:00 11.1 0 Calma 9 Nordeste 0 -- -- 96
2018-11-17 20:00:00 12.1 4 Nordeste 8 Este 0.2 -- -- 97
2018-11-17 19:00:00 13 3 Nordeste 9 Norte 0 -- -- 96
2018-11-17 18:00:00 13.5 3 Norte 9 Norte 0 -- -- 95
2018-11-17 17:00:00 14.1 4 Este 15 Nordeste 0.4 -- -- 92
2018-11-17 16:00:00 14.7 5 Nordeste 18 Nordeste 0.2 -- -- 91
2018-11-17 15:00:00 15.1 6 Nordeste 27 Norte 0.2 -- -- 87
2018-11-17 14:00:00 18.4 8 Norte 15 Norte 0 -- -- 75
2018-11-17 13:00:00 19.5 4 Este 11 Norte 0 -- -- 63
2018-11-17 12:00:00 18 6 Norte 14 Nordeste 0 -- -- 69
2018-11-17 11:00:00 18.2 5 Norte 11 Nordeste 0 -- -- 69
2018-11-17 10:00:00 15.5 3 Norte 5 Norte 0 -- -- 89
2018-11-17 09:00:00 12.2 0 Calma 3 Norte 0 -- -- 100
2018-11-17 08:00:00 8.1 0 Calma 4 Sudeste 0 -- -- 98
2018-11-17 07:00:00 9 0 Calma 5 Nordeste 0 -- -- 97
2018-11-17 06:00:00 10.5 2 Nordeste 8 Nordeste 0 -- -- 97
2018-11-17 05:00:00 11.9 5 Nordeste 10 Nordeste 0 -- -- 99
2018-11-17 04:00:00 12.2 4 Nordeste 12 Nordeste 0 -- -- 98
2018-11-17 03:00:00 12.5 4 Nordeste 12 Nordeste 0 -- -- 98
2018-11-17 02:00:00 12.6 4 Nordeste 10 Nordeste 0 -- -- 98
2018-11-17 01:00:00 10.8 2 Nordeste 5 Este 0 -- -- 97
2018-11-17 00:00:00 12.3 3 Nordeste 9 Nordeste 0 -- -- 97
2018-11-16 23:00:00 12.5 5 Nordeste 11 Nordeste 0 -- -- 97
2018-11-16 22:00:00 11.6 2 Nordeste 4 Norte 0 -- -- 94
2018-11-16 21:00:00 13 0 Calma 7 Nordeste 0 -- -- 94
2018-11-16 20:00:00 14 3 Nordeste 7 Norte 0 -- -- 93
2018-11-16 19:00:00 15 2 Norte 6 Nordeste 0 -- -- 89
2018-11-16 18:00:00 16.2 5 Nordeste 16 Este 0 -- -- 86
2018-11-16 17:00:00 18.1 8 Nordeste 26 Este 0 -- -- 79
2018-11-16 16:00:00 19.3 13 Este 25 Este 0 -- -- 76
2018-11-16 15:00:00 20.4 15 Este 26 Este 0 -- -- 72
2018-11-16 14:00:00 20.1 9 Este 27 Este 0 -- -- 75
2018-11-16 13:00:00 20.7 17 Este 30 Este 0 -- -- 72
2018-11-16 12:00:00 20.7 16 Este 29 Este 0 -- -- 71
2018-11-16 11:00:00 19.6 14 Este 24 Este 0 -- -- 75
2018-11-16 10:00:00 19 12 Este 22 Este 0 -- -- 83
2018-11-16 09:00:00 17.2 6 Nordeste 13 Nordeste 0 -- -- 91
2018-11-16 08:00:00 16.5 6 Nordeste 17 Este 0 -- -- 92
2018-11-16 07:00:00 16.7 9 Nordeste 20 Nordeste 0 -- -- 90
2018-11-16 06:00:00 17.1 10 Este 19 Este 0 -- -- 91
2018-11-16 05:00:00 17.1 6 Este 15 Este 0 -- -- 92
2018-11-16 04:00:00 17.1 9 Este 18 Nordeste 0 -- -- 94
2018-11-16 03:00:00 16.6 8 Este 18 Nordeste 0 -- -- 96
2018-11-16 02:00:00 15.1 4 Nordeste 8 Norte 0 -- -- 96
2018-11-16 01:00:00 16.3 4 Norte 12 Nordeste 0 -- -- 95
2018-11-16 00:00:00 16.2 5 Nordeste 14 Nordeste 0 -- -- 96
2018-11-15 23:00:00 15.3 5 Nordeste 9 Nordeste 0 -- -- 97
2018-11-15 22:00:00 15.2 3 Nordeste 6 Nordeste 0 -- -- 93
2018-11-15 21:00:00 16.7 3 Este 12 Nordeste 0 -- -- 92
2018-11-15 20:00:00 17.5 7 Nordeste 19 Este 0 -- -- 91
2018-11-15 19:00:00 17.9 9 Este 20 Este 0 -- -- 92
2018-11-15 18:00:00 18.3 9 Nordeste 23 Este 0 -- -- 89
2018-11-15 17:00:00 19 8 Nordeste 17 Este 0 -- -- 84
2018-11-15 16:00:00 19.7 9 Nordeste 28 Este 0 -- -- 81
2018-11-15 15:00:00 21.2 14 Este 24 Este 0 -- -- 76
2018-11-15 14:00:00 21.1 9 Este 30 Este 0 -- -- 78
2018-11-15 13:00:00 19.9 18 Este 32 Este 0 -- -- 84
2018-11-15 12:00:00 19.9 18 Este 32 Este 0 -- -- 82
2018-11-15 11:00:00 19.8 15 Este 27 Este 0 -- -- 86
2018-11-15 10:00:00 19 12 Este 23 Este 0 -- -- 95
2018-11-15 09:00:00 17.1 4 Norte 7 Norte 0 -- -- 99
2018-11-15 08:00:00 15.9 3 Norte 7 Nordeste 0 -- -- 99
2018-11-15 07:00:00 15.8 4 Norte 9 Nordeste 0 -- -- 99
2018-11-15 06:00:00 15.1 3 Nordeste 8 Norte 0 -- -- 98
2018-11-15 05:00:00 16.6 6 Nordeste 13 Nordeste 0 -- -- 98
2018-11-15 04:00:00 16.6 5 Nordeste 12 Nordeste 0 -- -- 98
2018-11-15 03:00:00 15.7 0 Calma 4 Norte 0 -- -- 97
2018-11-15 02:00:00 16.9 3 Norte 7 Este 0.6 -- -- 96
2018-11-15 01:00:00 17.5 5 Este 13 Este 0 -- -- 95
2018-11-15 00:00:00 17.6 7 Este 17 Este 0 -- -- 94
2018-11-14 23:00:00 17.4 8 Este 18 Este 0 -- -- 94
2018-11-14 22:00:00 17.3 9 Este 16 Este 0 -- -- 95
2018-11-14 21:00:00 16.9 4 Nordeste 9 Nordeste 0 -- -- 95
2018-11-14 20:00:00 16.5 4 Nordeste 9 Nordeste 0 -- -- 95
2018-11-14 19:00:00 16.6 4 Nordeste 9 Nordeste 0 -- -- 92
2018-11-14 18:00:00 17.5 5 Nordeste 16 Este 0 -- -- 89
2018-11-14 17:00:00 19.1 6 Este 17 Este 0 -- -- 84
2018-11-14 16:00:00 19.8 6 Nordeste 15 Nordeste 0 -- -- 79
2018-11-14 15:00:00 21.1 9 Este 21 Este 0 -- -- 78
2018-11-14 14:00:00 20.5 11 Este 21 Este 0 -- -- 78
2018-11-14 13:00:00 21.2 11 Este 18 Este 0 -- -- 75
2018-11-14 12:00:00 21.5 7 Nordeste 20 Este 0 -- -- 76
2018-11-14 11:00:00 19.8 12 Este 21 Este 0 -- -- 87
2018-11-14 10:00:00 17.6 3 Norte 9 Norte 0 -- -- 100
2018-11-14 09:00:00 13.8 3 Nordeste 8 Nordeste 0 -- -- 100
2018-11-14 08:00:00 12.3 2 Nordeste 6 Norte 0 -- -- 100
2018-11-14 07:00:00 11.6 2 Este 8 Nordeste 0 -- -- 99
2018-11-14 06:00:00 12.3 3 Nordeste 9 Norte 0 -- -- 100
2018-11-14 05:00:00 12.2 4 Este 8 Nordeste 0 -- -- 100
2018-11-14 04:00:00 11.7 3 Nordeste 5 Nordeste 0 -- -- 99
2018-11-14 03:00:00 11.4 3 Nordeste 5 Nordeste 0 -- -- 99
2018-11-14 02:00:00 10.9 3 Este -- -- 0 -- -- 98
2018-11-14 01:00:00 11.6 4 Este 6 Este 0 -- -- 98
2018-11-14 00:00:00 12 3 Este 7 Nordeste 0 -- -- 97